sensor_id;sensor_type;location;lat;lon;timestamp;temperature;humidity
46356;DHT22;32066;49.474;11.106;2022-12-29T00:00:02;9.20;96.30
46356;DHT22;32066;49.474;11.106;2022-12-29T00:02:39;9.20;96.00
46356;DHT22;32066;49.474;11.106;2022-12-29T00:05:06;9.20;96.00
46356;DHT22;32066;49.474;11.106;2022-12-29T00:07:33;9.20;95.80
46356;DHT22;32066;49.474;11.106;2022-12-29T00:10:00;9.20;95.60
46356;DHT22;32066;49.474;11.106;2022-12-29T00:12:27;9.20;95.50
46356;DHT22;32066;49.474;11.106;2022-12-29T00:15:15;9.20;95.40
46356;DHT22;32066;49.474;11.106;2022-12-29T00:18:01;9.20;95.60
46356;DHT22;32066;49.474;11.106;2022-12-29T00:20:27;9.30;95.30
46356;DHT22;32066;49.474;11.106;2022-12-29T00:23:12;9.30;95.20
46356;DHT22;32066;49.474;11.106;2022-12-29T00:25:56;9.20;95.20
46356;DHT22;32066;49.474;11.106;2022-12-29T00:28:41;9.30;95.10
46356;DHT22;32066;49.474;11.106;2022-12-29T00:31:25;9.30;95.30
46356;DHT22;32066;49.474;11.106;2022-12-29T00:34:12;9.30;95.00
46356;DHT22;32066;49.474;11.106;2022-12-29T00:36:57;9.30;94.90
46356;DHT22;32066;49.474;11.106;2022-12-29T00:39:26;9.30;94.90
46356;DHT22;32066;49.474;11.106;2022-12-29T00:42:10;9.30;94.80
46356;DHT22;32066;49.474;11.106;2022-12-29T00:44:55;9.30;94.70
46356;DHT22;32066;49.474;11.106;2022-12-29T00:47:21;9.40;94.70
46356;DHT22;32066;49.474;11.106;2022-12-29T00:49:50;9.40;94.70
46356;DHT22;32066;49.474;11.106;2022-12-29T00:52:16;9.40;94.60
46356;DHT22;32066;49.474;11.106;2022-12-29T00:54:44;9.40;94.60
46356;DHT22;32066;49.474;11.106;2022-12-29T00:57:11;9.40;94.50
46356;DHT22;32066;49.474;11.106;2022-12-29T00:59:39;9.40;94.50
46356;DHT22;32066;49.474;11.106;2022-12-29T01:02:07;9.40;94.50
46356;DHT22;32066;49.474;11.106;2022-12-29T01:04:34;9.40;94.50
46356;DHT22;32066;49.474;11.106;2022-12-29T01:07:03;9.40;94.50
46356;DHT22;32066;49.474;11.106;2022-12-29T01:09:31;9.50;94.40
46356;DHT22;32066;49.474;11.106;2022-12-29T01:12:15;9.50;94.40
46356;DHT22;32066;49.474;11.106;2022-12-29T01:14:42;9.50;94.40
46356;DHT22;32066;49.474;11.106;2022-12-29T01:17:09;9.50;94.40
46356;DHT22;32066;49.474;11.106;2022-12-29T01:19:36;9.50;94.40
46356;DHT22;32066;49.474;11.106;2022-12-29T01:22:04;9.50;94.40
46356;DHT22;32066;49.474;11.106;2022-12-29T01:24:31;9.50;94.40
46356;DHT22;32066;49.474;11.106;2022-12-29T01:26:58;9.50;94.30
46356;DHT22;32066;49.474;11.106;2022-12-29T01:29:25;9.50;94.30
46356;DHT22;32066;49.474;11.106;2022-12-29T01:31:51;9.50;94.30
46356;DHT22;32066;49.474;11.106;2022-12-29T01:34:18;9.50;94.30
46356;DHT22;32066;49.474;11.106;2022-12-29T01:36:45;9.60;94.30
46356;DHT22;32066;49.474;11.106;2022-12-29T01:39:14;9.50;94.20
46356;DHT22;32066;49.474;11.106;2022-12-29T01:41:41;9.60;94.30
46356;DHT22;32066;49.474;11.106;2022-12-29T01:47:13;9.60;94.30
46356;DHT22;32066;49.474;11.106;2022-12-29T01:49:41;9.60;94.20
46356;DHT22;32066;49.474;11.106;2022-12-29T01:52:08;9.60;94.20
46356;DHT22;32066;49.474;11.106;2022-12-29T01:54:40;9.60;94.20
46356;DHT22;32066;49.474;11.106;2022-12-29T01:57:12;9.60;94.20
46356;DHT22;32066;49.474;11.106;2022-12-29T01:59:43;9.60;94.20
46356;DHT22;32066;49.474;11.106;2022-12-29T02:02:12;9.60;94.20
46356;DHT22;32066;49.474;11.106;2022-12-29T02:04:41;9.70;94.10
46356;DHT22;32066;49.474;11.106;2022-12-29T02:07:13;9.60;94.10
46356;DHT22;32066;49.474;11.106;2022-12-29T02:09:43;9.70;94.20
46356;DHT22;32066;49.474;11.106;2022-12-29T02:12:15;9.70;94.20
46356;DHT22;32066;49.474;11.106;2022-12-29T02:14:42;9.70;94.20
46356;DHT22;32066;49.474;11.106;2022-12-29T02:17:15;9.60;94.10
46356;DHT22;32066;49.474;11.106;2022-12-29T02:20:10;9.70;94.10
46356;DHT22;32066;49.474;11.106;2022-12-29T02:22:50;9.70;94.20
46356;DHT22;32066;49.474;11.106;2022-12-29T02:25:56;9.70;94.20
46356;DHT22;32066;49.474;11.106;2022-12-29T02:28:54;9.70;94.10
46356;DHT22;32066;49.474;11.106;2022-12-29T02:31:31;9.80;94.10
46356;DHT22;32066;49.474;11.106;2022-12-29T02:34:06;9.80;94.10
46356;DHT22;32066;49.474;11.106;2022-12-29T02:36:42;9.70;94.00
46356;DHT22;32066;49.474;11.106;2022-12-29T02:39:18;9.80;94.00
46356;DHT22;32066;49.474;11.106;2022-12-29T02:41:56;9.80;94.00
46356;DHT22;32066;49.474;11.106;2022-12-29T02:44:27;9.80;94.00
46356;DHT22;32066;49.474;11.106;2022-12-29T02:47:02;9.80;94.10
46356;DHT22;32066;49.474;11.106;2022-12-29T02:49:36;9.80;94.10
46356;DHT22;32066;49.474;11.106;2022-12-29T02:52:06;9.80;94.10
46356;DHT22;32066;49.474;11.106;2022-12-29T02:54:33;9.80;94.10
46356;DHT22;32066;49.474;11.106;2022-12-29T02:57:12;9.80;94.00
46356;DHT22;32066;49.474;11.106;2022-12-29T02:59:40;9.80;94.10
46356;DHT22;32066;49.474;11.106;2022-12-29T03:02:39;9.80;94.10
46356;DHT22;32066;49.474;11.106;2022-12-29T03:05:22;9.80;94.10
46356;DHT22;32066;49.474;11.106;2022-12-29T03:08:00;9.80;94.10
46356;DHT22;32066;49.474;11.106;2022-12-29T03:10:36;9.80;94.00
46356;DHT22;32066;49.474;11.106;2022-12-29T03:13:12;9.80;94.00
46356;DHT22;32066;49.474;11.106;2022-12-29T03:16:07;9.80;94.00
46356;DHT22;32066;49.474;11.106;2022-12-29T03:18:47;9.80;94.00
46356;DHT22;32066;49.474;11.106;2022-12-29T03:21:22;9.80;94.00
46356;DHT22;32066;49.474;11.106;2022-12-29T03:24:10;9.80;94.00
46356;DHT22;32066;49.474;11.106;2022-12-29T03:26:37;9.80;94.00
46356;DHT22;32066;49.474;11.106;2022-12-29T03:29:08;9.80;93.90
46356;DHT22;32066;49.474;11.106;2022-12-29T03:31:35;9.80;93.90
46356;DHT22;32066;49.474;11.106;2022-12-29T03:34:06;9.90;93.90
46356;DHT22;32066;49.474;11.106;2022-12-29T03:36:38;9.80;93.90
46356;DHT22;32066;49.474;11.106;2022-12-29T03:39:09;9.80;94.00
46356;DHT22;32066;49.474;11.106;2022-12-29T03:41:40;9.90;93.90
46356;DHT22;32066;49.474;11.106;2022-12-29T03:44:10;9.90;93.90
46356;DHT22;32066;49.474;11.106;2022-12-29T03:46:38;9.90;93.90
46356;DHT22;32066;49.474;11.106;2022-12-29T03:49:06;9.90;93.80
46356;DHT22;32066;49.474;11.106;2022-12-29T03:51:33;9.80;93.80
46356;DHT22;32066;49.474;11.106;2022-12-29T03:54:02;9.90;93.80
46356;DHT22;32066;49.474;11.106;2022-12-29T03:56:29;9.90;93.70
46356;DHT22;32066;49.474;11.106;2022-12-29T03:58:57;9.90;93.80
46356;DHT22;32066;49.474;11.106;2022-12-29T04:01:30;9.80;93.70
46356;DHT22;32066;49.474;11.106;2022-12-29T04:03:57;9.90;93.70
46356;DHT22;32066;49.474;11.106;2022-12-29T04:06:26;9.90;93.70
46356;DHT22;32066;49.474;11.106;2022-12-29T04:08:59;9.90;93.70
46356;DHT22;32066;49.474;11.106;2022-12-29T04:11:29;9.90;93.70
46356;DHT22;32066;49.474;11.106;2022-12-29T04:13:56;9.90;93.60
46356;DHT22;32066;49.474;11.106;2022-12-29T04:16:24;9.90;93.60
46356;DHT22;32066;49.474;11.106;2022-12-29T04:18:51;9.90;93.60
46356;DHT22;32066;49.474;11.106;2022-12-29T04:21:18;9.90;93.60
46356;DHT22;32066;49.474;11.106;2022-12-29T04:23:45;9.90;93.60
46356;DHT22;32066;49.474;11.106;2022-12-29T04:26:13;9.90;93.60
46356;DHT22;32066;49.474;11.106;2022-12-29T04:28:50;9.90;93.60
46356;DHT22;32066;49.474;11.106;2022-12-29T04:31:27;9.90;93.40
46356;DHT22;32066;49.474;11.106;2022-12-29T04:33:54;10.00;93.50
46356;DHT22;32066;49.474;11.106;2022-12-29T04:36:22;9.90;93.40
46356;DHT22;32066;49.474;11.106;2022-12-29T04:38:51;9.90;93.40
46356;DHT22;32066;49.474;11.106;2022-12-29T04:41:18;9.90;93.40
46356;DHT22;32066;49.474;11.106;2022-12-29T04:43:45;9.90;93.40
46356;DHT22;32066;49.474;11.106;2022-12-29T04:46:12;9.90;93.40
46356;DHT22;32066;49.474;11.106;2022-12-29T04:48:52;9.90;93.30
46356;DHT22;32066;49.474;11.106;2022-12-29T04:51:29;9.90;93.30
46356;DHT22;32066;49.474;11.106;2022-12-29T04:53:57;9.90;93.30
46356;DHT22;32066;49.474;11.106;2022-12-29T04:56:26;9.90;93.30
46356;DHT22;32066;49.474;11.106;2022-12-29T04:58:53;9.90;93.30
46356;DHT22;32066;49.474;11.106;2022-12-29T05:01:20;9.90;93.30
46356;DHT22;32066;49.474;11.106;2022-12-29T05:03:50;9.90;93.20
46356;DHT22;32066;49.474;11.106;2022-12-29T05:06:17;9.90;93.20
46356;DHT22;32066;49.474;11.106;2022-12-29T05:08:45;9.90;93.20
46356;DHT22;32066;49.474;11.106;2022-12-29T05:11:13;9.90;93.20
46356;DHT22;32066;49.474;11.106;2022-12-29T05:13:40;9.90;93.30
46356;DHT22;32066;49.474;11.106;2022-12-29T05:16:08;9.90;93.30
46356;DHT22;32066;49.474;11.106;2022-12-29T05:18:34;9.90;93.30
46356;DHT22;32066;49.474;11.106;2022-12-29T05:21:03;9.90;93.20
46356;DHT22;32066;49.474;11.106;2022-12-29T05:23:29;9.90;93.30
46356;DHT22;32066;49.474;11.106;2022-12-29T05:26:01;9.90;93.30
46356;DHT22;32066;49.474;11.106;2022-12-29T05:28:49;9.90;93.30
46356;DHT22;32066;49.474;11.106;2022-12-29T05:31:18;9.90;93.20
46356;DHT22;32066;49.474;11.106;2022-12-29T05:33:45;9.90;93.30
46356;DHT22;32066;49.474;11.106;2022-12-29T05:36:12;9.90;93.30
46356;DHT22;32066;49.474;11.106;2022-12-29T05:38:43;9.90;93.20
46356;DHT22;32066;49.474;11.106;2022-12-29T05:41:10;9.90;93.20
46356;DHT22;32066;49.474;11.106;2022-12-29T05:43:51;9.90;93.10
46356;DHT22;32066;49.474;11.106;2022-12-29T05:46:30;9.90;93.20
46356;DHT22;32066;49.474;11.106;2022-12-29T05:49:08;9.90;93.10
46356;DHT22;32066;49.474;11.106;2022-12-29T05:52:07;9.90;93.10
46356;DHT22;32066;49.474;11.106;2022-12-29T05:54:34;9.90;93.20
46356;DHT22;32066;49.474;11.106;2022-12-29T05:57:03;9.90;93.20
46356;DHT22;32066;49.474;11.106;2022-12-29T05:59:33;9.90;93.20
46356;DHT22;32066;49.474;11.106;2022-12-29T06:02:01;9.90;93.20
46356;DHT22;32066;49.474;11.106;2022-12-29T06:04:28;9.80;93.20
46356;DHT22;32066;49.474;11.106;2022-12-29T06:06:55;9.80;93.10
46356;DHT22;32066;49.474;11.106;2022-12-29T06:09:36;9.80;93.20
46356;DHT22;32066;49.474;11.106;2022-12-29T06:12:05;9.80;93.10
46356;DHT22;32066;49.474;11.106;2022-12-29T06:14:34;9.80;93.00
46356;DHT22;32066;49.474;11.106;2022-12-29T06:17:02;9.80;93.10
46356;DHT22;32066;49.474;11.106;2022-12-29T06:19:29;9.80;93.10
46356;DHT22;32066;49.474;11.106;2022-12-29T06:21:56;9.80;93.00
46356;DHT22;32066;49.474;11.106;2022-12-29T06:24:23;9.80;93.10
46356;DHT22;32066;49.474;11.106;2022-12-29T06:26:50;9.80;93.10
46356;DHT22;32066;49.474;11.106;2022-12-29T06:29:16;9.80;93.00
46356;DHT22;32066;49.474;11.106;2022-12-29T06:31:45;9.80;93.00
46356;DHT22;32066;49.474;11.106;2022-12-29T06:34:12;9.80;93.00
46356;DHT22;32066;49.474;11.106;2022-12-29T06:36:39;9.80;92.90
46356;DHT22;32066;49.474;11.106;2022-12-29T06:39:06;9.80;92.90
46356;DHT22;32066;49.474;11.106;2022-12-29T06:41:33;9.80;92.80
46356;DHT22;32066;49.474;11.106;2022-12-29T06:44:16;9.80;92.80
46356;DHT22;32066;49.474;11.106;2022-12-29T06:46:55;9.80;92.90
46356;DHT22;32066;49.474;11.106;2022-12-29T06:49:23;9.70;92.90
46356;DHT22;32066;49.474;11.106;2022-12-29T06:51:49;9.80;93.00
46356;DHT22;32066;49.474;11.106;2022-12-29T06:54:16;9.70;92.90
46356;DHT22;32066;49.474;11.106;2022-12-29T06:56:43;9.70;93.00
46356;DHT22;32066;49.474;11.106;2022-12-29T06:59:10;9.70;92.90
46356;DHT22;32066;49.474;11.106;2022-12-29T07:01:37;9.70;92.90
46356;DHT22;32066;49.474;11.106;2022-12-29T07:04:05;9.80;93.00
46356;DHT22;32066;49.474;11.106;2022-12-29T07:06:32;9.70;92.80
46356;DHT22;32066;49.474;11.106;2022-12-29T07:08:59;9.80;92.80
46356;DHT22;32066;49.474;11.106;2022-12-29T07:11:26;9.80;92.90
46356;DHT22;32066;49.474;11.106;2022-12-29T07:13:53;9.70;92.80
46356;DHT22;32066;49.474;11.106;2022-12-29T07:16:19;9.80;92.80
46356;DHT22;32066;49.474;11.106;2022-12-29T07:18:46;9.70;92.70
46356;DHT22;32066;49.474;11.106;2022-12-29T07:21:14;9.70;92.60
46356;DHT22;32066;49.474;11.106;2022-12-29T07:23:41;9.70;92.70
46356;DHT22;32066;49.474;11.106;2022-12-29T07:26:12;9.80;92.70
46356;DHT22;32066;49.474;11.106;2022-12-29T07:28:39;9.80;92.70
46356;DHT22;32066;49.474;11.106;2022-12-29T07:31:14;9.80;92.70
46356;DHT22;32066;49.474;11.106;2022-12-29T07:33:42;9.80;92.80
46356;DHT22;32066;49.474;11.106;2022-12-29T07:36:09;9.80;92.80
46356;DHT22;32066;49.474;11.106;2022-12-29T07:38:38;9.80;92.70
46356;DHT22;32066;49.474;11.106;2022-12-29T07:41:05;9.80;92.70
46356;DHT22;32066;49.474;11.106;2022-12-29T07:43:32;9.90;92.70
46356;DHT22;32066;49.474;11.106;2022-12-29T07:46:22;9.90;92.80
46356;DHT22;32066;49.474;11.106;2022-12-29T07:48:48;9.90;92.50
46356;DHT22;32066;49.474;11.106;2022-12-29T07:51:15;9.80;92.60
46356;DHT22;32066;49.474;11.106;2022-12-29T07:53:43;9.90;92.50
46356;DHT22;32066;49.474;11.106;2022-12-29T07:56:10;9.90;92.50
46356;DHT22;32066;49.474;11.106;2022-12-29T07:58:37;9.90;92.40
46356;DHT22;32066;49.474;11.106;2022-12-29T08:01:04;9.90;92.40
46356;DHT22;32066;49.474;11.106;2022-12-29T08:03:31;9.90;92.40
46356;DHT22;32066;49.474;11.106;2022-12-29T08:05:58;9.90;92.30
46356;DHT22;32066;49.474;11.106;2022-12-29T08:08:25;9.90;92.30
46356;DHT22;32066;49.474;11.106;2022-12-29T08:10:53;10.00;92.40
46356;DHT22;32066;49.474;11.106;2022-12-29T08:13:20;10.00;92.30
46356;DHT22;32066;49.474;11.106;2022-12-29T08:15:46;10.00;92.20
46356;DHT22;32066;49.474;11.106;2022-12-29T08:18:13;10.00;92.30
46356;DHT22;32066;49.474;11.106;2022-12-29T08:20:40;10.00;92.30
46356;DHT22;32066;49.474;11.106;2022-12-29T08:23:07;10.00;92.30
46356;DHT22;32066;49.474;11.106;2022-12-29T08:25:34;10.00;92.50
46356;DHT22;32066;49.474;11.106;2022-12-29T08:28:02;10.10;92.30
46356;DHT22;32066;49.474;11.106;2022-12-29T08:30:29;10.10;92.30
46356;DHT22;32066;49.474;11.106;2022-12-29T08:32:56;10.10;92.30
46356;DHT22;32066;49.474;11.106;2022-12-29T08:35:23;10.10;92.30
46356;DHT22;32066;49.474;11.106;2022-12-29T08:37:49;10.10;92.30
46356;DHT22;32066;49.474;11.106;2022-12-29T08:40:16;10.20;92.30
46356;DHT22;32066;49.474;11.106;2022-12-29T08:42:43;10.20;92.30
46356;DHT22;32066;49.474;11.106;2022-12-29T08:45:12;10.30;92.30
46356;DHT22;32066;49.474;11.106;2022-12-29T08:47:38;10.30;92.30
46356;DHT22;32066;49.474;11.106;2022-12-29T08:50:06;10.30;92.30
46356;DHT22;32066;49.474;11.106;2022-12-29T08:52:33;10.40;92.30
46356;DHT22;32066;49.474;11.106;2022-12-29T08:55:00;10.50;92.30
46356;DHT22;32066;49.474;11.106;2022-12-29T08:57:27;10.50;92.20
46356;DHT22;32066;49.474;11.106;2022-12-29T09:00:05;10.50;92.20
46356;DHT22;32066;49.474;11.106;2022-12-29T09:02:33;10.60;92.40
46356;DHT22;32066;49.474;11.106;2022-12-29T09:05:00;10.60;92.10
46356;DHT22;32066;49.474;11.106;2022-12-29T09:07:27;10.60;92.10
46356;DHT22;32066;49.474;11.106;2022-12-29T09:09:54;10.60;92.00
46356;DHT22;32066;49.474;11.106;2022-12-29T09:12:21;10.70;92.40
46356;DHT22;32066;49.474;11.106;2022-12-29T09:14:47;10.70;92.10
46356;DHT22;32066;49.474;11.106;2022-12-29T09:17:14;10.80;92.10
46356;DHT22;32066;49.474;11.106;2022-12-29T09:20:00;10.80;92.20
46356;DHT22;32066;49.474;11.106;2022-12-29T09:22:27;10.90;92.20
46356;DHT22;32066;49.474;11.106;2022-12-29T09:24:54;10.90;92.30
46356;DHT22;32066;49.474;11.106;2022-12-29T09:27:20;10.90;92.30
46356;DHT22;32066;49.474;11.106;2022-12-29T09:29:47;11.10;92.60
46356;DHT22;32066;49.474;11.106;2022-12-29T09:32:14;11.10;92.30
46356;DHT22;32066;49.474;11.106;2022-12-29T09:34:41;11.20;92.40
46356;DHT22;32066;49.474;11.106;2022-12-29T09:37:09;11.30;92.20
46356;DHT22;32066;49.474;11.106;2022-12-29T09:39:36;11.30;92.20
46356;DHT22;32066;49.474;11.106;2022-12-29T09:42:06;11.40;92.20
46356;DHT22;32066;49.474;11.106;2022-12-29T09:44:48;11.40;92.20
46356;DHT22;32066;49.474;11.106;2022-12-29T09:47:17;11.40;92.10
46356;DHT22;32066;49.474;11.106;2022-12-29T09:49:47;11.50;92.00
46356;DHT22;32066;49.474;11.106;2022-12-29T09:52:20;11.50;92.10
46356;DHT22;32066;49.474;11.106;2022-12-29T09:54:52;11.50;92.10
46356;DHT22;32066;49.474;11.106;2022-12-29T09:57:24;11.50;92.10
46356;DHT22;32066;49.474;11.106;2022-12-29T09:59:55;11.50;92.00
46356;DHT22;32066;49.474;11.106;2022-12-29T10:02:32;11.50;92.10
46356;DHT22;32066;49.474;11.106;2022-12-29T10:05:00;11.60;92.10
46356;DHT22;32066;49.474;11.106;2022-12-29T10:07:38;11.50;92.00
46356;DHT22;32066;49.474;11.106;2022-12-29T10:10:21;11.60;92.10
46356;DHT22;32066;49.474;11.106;2022-12-29T10:13:01;11.60;92.10
46356;DHT22;32066;49.474;11.106;2022-12-29T10:15:40;11.60;92.20
46356;DHT22;32066;49.474;11.106;2022-12-29T10:18:22;11.50;92.20
46356;DHT22;32066;49.474;11.106;2022-12-29T10:20:54;11.50;92.20
46356;DHT22;32066;49.474;11.106;2022-12-29T10:23:28;11.60;92.40
46356;DHT22;32066;49.474;11.106;2022-12-29T10:25:58;11.50;92.40
46356;DHT22;32066;49.474;11.106;2022-12-29T10:28:34;11.50;92.40
46356;DHT22;32066;49.474;11.106;2022-12-29T10:31:03;11.50;92.50
46356;DHT22;32066;49.474;11.106;2022-12-29T10:33:34;11.50;92.50
46356;DHT22;32066;49.474;11.106;2022-12-29T10:36:04;11.50;92.60
46356;DHT22;32066;49.474;11.106;2022-12-29T10:38:44;11.50;92.60
46356;DHT22;32066;49.474;11.106;2022-12-29T10:41:18;11.50;92.60
46356;DHT22;32066;49.474;11.106;2022-12-29T10:43:49;11.50;92.60
46356;DHT22;32066;49.474;11.106;2022-12-29T10:46:19;11.50;92.70
46356;DHT22;32066;49.474;11.106;2022-12-29T10:48:47;11.50;92.70
46356;DHT22;32066;49.474;11.106;2022-12-29T10:51:20;11.50;92.70
46356;DHT22;32066;49.474;11.106;2022-12-29T10:53:52;11.60;92.80
46356;DHT22;32066;49.474;11.106;2022-12-29T10:56:27;11.60;92.90
46356;DHT22;32066;49.474;11.106;2022-12-29T10:58:58;11.60;92.90
46356;DHT22;32066;49.474;11.106;2022-12-29T11:01:34;11.60;92.90
46356;DHT22;32066;49.474;11.106;2022-12-29T11:04:08;11.60;93.00
46356;DHT22;32066;49.474;11.106;2022-12-29T11:06:37;11.60;93.00
46356;DHT22;32066;49.474;11.106;2022-12-29T11:09:13;11.60;93.00
46356;DHT22;32066;49.474;11.106;2022-12-29T11:11:41;11.70;93.10
46356;DHT22;32066;49.474;11.106;2022-12-29T11:14:12;11.70;93.10
46356;DHT22;32066;49.474;11.106;2022-12-29T11:16:40;11.70;93.10
46356;DHT22;32066;49.474;11.106;2022-12-29T11:19:20;11.70;93.20
46356;DHT22;32066;49.474;11.106;2022-12-29T11:21:48;11.70;93.20
46356;DHT22;32066;49.474;11.106;2022-12-29T11:24:21;11.80;93.20
46356;DHT22;32066;49.474;11.106;2022-12-29T11:26:50;11.80;93.40
46356;DHT22;32066;49.474;11.106;2022-12-29T11:29:23;11.90;93.70
46356;DHT22;32066;49.474;11.106;2022-12-29T11:31:52;11.90;94.20
46356;DHT22;32066;49.474;11.106;2022-12-29T11:34:22;12.00;94.20
46356;DHT22;32066;49.474;11.106;2022-12-29T11:36:51;12.00;94.60
46356;DHT22;32066;49.474;11.106;2022-12-29T11:39:30;12.20;94.50
46356;DHT22;32066;49.474;11.106;2022-12-29T11:42:00;12.20;94.20
46356;DHT22;32066;49.474;11.106;2022-12-29T11:44:37;12.30;94.50
46356;DHT22;32066;49.474;11.106;2022-12-29T11:47:05;12.30;94.10
46356;DHT22;32066;49.474;11.106;2022-12-29T11:49:35;12.40;94.40
46356;DHT22;32066;49.474;11.106;2022-12-29T11:52:02;12.40;94.50
46356;DHT22;32066;49.474;11.106;2022-12-29T11:54:33;12.50;94.20
46356;DHT22;32066;49.474;11.106;2022-12-29T11:57:09;12.60;94.20
46356;DHT22;32066;49.474;11.106;2022-12-29T11:59:42;12.70;94.00
46356;DHT22;32066;49.474;11.106;2022-12-29T12:02:21;12.80;93.10
46356;DHT22;32066;49.474;11.106;2022-12-29T12:04:51;12.80;92.60
46356;DHT22;32066;49.474;11.106;2022-12-29T12:07:24;12.80;92.50
46356;DHT22;32066;49.474;11.106;2022-12-29T12:09:58;12.70;92.60
46356;DHT22;32066;49.474;11.106;2022-12-29T12:12:30;12.70;92.70
46356;DHT22;32066;49.474;11.106;2022-12-29T12:14:59;12.70;92.70
46356;DHT22;32066;49.474;11.106;2022-12-29T12:17:44;12.80;92.60
46356;DHT22;32066;49.474;11.106;2022-12-29T12:20:18;12.80;92.60
46356;DHT22;32066;49.474;11.106;2022-12-29T12:22:53;12.90;92.60
46356;DHT22;32066;49.474;11.106;2022-12-29T12:25:27;12.90;92.60
46356;DHT22;32066;49.474;11.106;2022-12-29T12:27:58;12.90;92.60
46356;DHT22;32066;49.474;11.106;2022-12-29T12:30:29;12.90;92.70
46356;DHT22;32066;49.474;11.106;2022-12-29T12:32:59;12.90;92.60
46356;DHT22;32066;49.474;11.106;2022-12-29T12:35:36;12.90;92.70
46356;DHT22;32066;49.474;11.106;2022-12-29T12:38:14;12.90;92.80
46356;DHT22;32066;49.474;11.106;2022-12-29T12:41:06;12.90;92.80
46356;DHT22;32066;49.474;11.106;2022-12-29T12:43:54;12.90;93.00
46356;DHT22;32066;49.474;11.106;2022-12-29T12:46:52;12.90;93.00
46356;DHT22;32066;49.474;11.106;2022-12-29T12:49:36;12.90;93.10
46356;DHT22;32066;49.474;11.106;2022-12-29T12:52:10;12.90;93.20
46356;DHT22;32066;49.474;11.106;2022-12-29T12:54:51;12.80;93.30
46356;DHT22;32066;49.474;11.106;2022-12-29T12:57:31;12.80;93.30
46356;DHT22;32066;49.474;11.106;2022-12-29T13:00:03;12.70;93.50
46356;DHT22;32066;49.474;11.106;2022-12-29T13:02:40;12.70;93.60
46356;DHT22;32066;49.474;11.106;2022-12-29T13:05:25;12.70;93.80
46356;DHT22;32066;49.474;11.106;2022-12-29T13:08:08;12.70;93.90
46356;DHT22;32066;49.474;11.106;2022-12-29T13:10:47;12.60;93.90
46356;DHT22;32066;49.474;11.106;2022-12-29T13:13:34;12.60;93.90
46356;DHT22;32066;49.474;11.106;2022-12-29T13:16:12;12.50;94.10
46356;DHT22;32066;49.474;11.106;2022-12-29T13:18:48;12.50;94.20
46356;DHT22;32066;49.474;11.106;2022-12-29T13:21:26;12.50;94.30
46356;DHT22;32066;49.474;11.106;2022-12-29T13:23:57;12.50;94.50
46356;DHT22;32066;49.474;11.106;2022-12-29T13:26:29;12.40;94.70
46356;DHT22;32066;49.474;11.106;2022-12-29T13:29:13;12.40;94.80
46356;DHT22;32066;49.474;11.106;2022-12-29T13:31:49;12.30;95.00
46356;DHT22;32066;49.474;11.106;2022-12-29T13:34:23;12.20;95.20
46356;DHT22;32066;49.474;11.106;2022-12-29T13:36:54;12.30;95.30
46356;DHT22;32066;49.474;11.106;2022-12-29T13:39:25;12.30;95.30
46356;DHT22;32066;49.474;11.106;2022-12-29T13:41:54;12.30;95.40
46356;DHT22;32066;49.474;11.106;2022-12-29T13:44:27;12.30;95.20
46356;DHT22;32066;49.474;11.106;2022-12-29T13:46:56;12.20;95.20
46356;DHT22;32066;49.474;11.106;2022-12-29T13:49:26;12.20;95.10
46356;DHT22;32066;49.474;11.106;2022-12-29T13:51:56;12.20;95.10
46356;DHT22;32066;49.474;11.106;2022-12-29T13:54:31;12.20;95.00
46356;DHT22;32066;49.474;11.106;2022-12-29T13:57:06;12.30;94.90
46356;DHT22;32066;49.474;11.106;2022-12-29T13:59:42;12.20;94.80
46356;DHT22;32066;49.474;11.106;2022-12-29T14:02:19;12.20;94.80
46356;DHT22;32066;49.474;11.106;2022-12-29T14:04:59;12.20;94.80
46356;DHT22;32066;49.474;11.106;2022-12-29T14:07:27;12.20;94.80
46356;DHT22;32066;49.474;11.106;2022-12-29T14:09:56;12.20;94.80
46356;DHT22;32066;49.474;11.106;2022-12-29T14:12:32;12.20;94.80
46356;DHT22;32066;49.474;11.106;2022-12-29T14:15:15;12.20;94.80
46356;DHT22;32066;49.474;11.106;2022-12-29T14:18:02;12.20;94.80
46356;DHT22;32066;49.474;11.106;2022-12-29T14:20:29;12.20;94.80
46356;DHT22;32066;49.474;11.106;2022-12-29T14:22:58;12.30;94.80
46356;DHT22;32066;49.474;11.106;2022-12-29T14:25:56;12.20;95.00
46356;DHT22;32066;49.474;11.106;2022-12-29T14:28:24;12.10;95.20
46356;DHT22;32066;49.474;11.106;2022-12-29T14:30:55;12.10;95.40
46356;DHT22;32066;49.474;11.106;2022-12-29T14:33:23;12.10;95.60
46356;DHT22;32066;49.474;11.106;2022-12-29T14:35:53;12.10;95.70
46356;DHT22;32066;49.474;11.106;2022-12-29T14:38:23;12.10;95.70
46356;DHT22;32066;49.474;11.106;2022-12-29T14:40:51;12.10;96.00
46356;DHT22;32066;49.474;11.106;2022-12-29T14:43:22;12.10;96.00
46356;DHT22;32066;49.474;11.106;2022-12-29T14:45:55;12.10;96.20
46356;DHT22;32066;49.474;11.106;2022-12-29T14:48:35;12.10;96.20
46356;DHT22;32066;49.474;11.106;2022-12-29T14:51:17;12.00;96.30
46356;DHT22;32066;49.474;11.106;2022-12-29T14:53:46;12.00;96.50
46356;DHT22;32066;49.474;11.106;2022-12-29T14:56:15;12.00;96.50
46356;DHT22;32066;49.474;11.106;2022-12-29T14:58:48;12.00;96.50
46356;DHT22;32066;49.474;11.106;2022-12-29T15:01:22;12.00;96.60
46356;DHT22;32066;49.474;11.106;2022-12-29T15:03:53;11.90;96.60
46356;DHT22;32066;49.474;11.106;2022-12-29T15:06:22;11.90;96.70
46356;DHT22;32066;49.474;11.106;2022-12-29T15:08:53;12.00;96.60
46356;DHT22;32066;49.474;11.106;2022-12-29T15:11:22;12.00;96.60
46356;DHT22;32066;49.474;11.106;2022-12-29T15:13:50;11.90;96.70
46356;DHT22;32066;49.474;11.106;2022-12-29T15:16:26;12.00;96.80
46356;DHT22;32066;49.474;11.106;2022-12-29T15:18:55;11.90;96.80
46356;DHT22;32066;49.474;11.106;2022-12-29T15:21:25;11.90;96.90
46356;DHT22;32066;49.474;11.106;2022-12-29T15:23:52;11.80;97.00
46356;DHT22;32066;49.474;11.106;2022-12-29T15:26:21;11.80;97.00
46356;DHT22;32066;49.474;11.106;2022-12-29T15:28:49;11.80;97.10
46356;DHT22;32066;49.474;11.106;2022-12-29T15:31:19;11.90;97.00
46356;DHT22;32066;49.474;11.106;2022-12-29T15:33:49;11.90;97.00
46356;DHT22;32066;49.474;11.106;2022-12-29T15:36:21;11.90;97.00
46356;DHT22;32066;49.474;11.106;2022-12-29T15:38:49;11.80;97.00
46356;DHT22;32066;49.474;11.106;2022-12-29T15:41:25;11.80;97.10
46356;DHT22;32066;49.474;11.106;2022-12-29T15:44:00;11.80;97.10
46356;DHT22;32066;49.474;11.106;2022-12-29T15:46:29;11.90;97.10
46356;DHT22;32066;49.474;11.106;2022-12-29T15:48:58;11.90;97.00
46356;DHT22;32066;49.474;11.106;2022-12-29T15:51:29;11.90;97.00
46356;DHT22;32066;49.474;11.106;2022-12-29T15:53:57;11.90;97.00